Time;durP1;ratioP1;P1;durP2;ratioP2;P2;SDS_P1;SDS_P2;PMS_P1;PMS_P2;Temp;Humidity;BMP_temperature;BMP_pressure;BME280_temperature;BME280_humidity;BME280_pressure;Samples;Min_cycle;Max_cycle;Signal;HPM_P1;HPM_P2
2022/07/15 00:00:08;;;;;;;4.22;2.03;;;18.90;92.30;;;;;;4942959;28;20028;-76
2022/07/15 00:02:36;;;;;;;2.92;1.95;;;19.40;92.80;;;;;;4936641;28;20497;-77
2022/07/15 00:05:05;;;;;;;2.75;1.88;;;19.50;91.60;;;;;;4935075;28;20043;-78
2022/07/15 00:07:34;;;;;;;2.03;1.25;;;19.70;91.60;;;;;;4943223;28;20031;-79
2022/07/15 00:10:20;;;;;;;1.58;1.17;;;19.60;91.20;;;;;;4946320;28;20023;-78
2022/07/15 00:12:57;;;;;;;1.92;0.93;;;19.70;91.60;;;;;;4934914;28;20039;-78
2022/07/15 00:15:27;;;;;;;1.30;0.90;;;19.90;90.60;;;;;;4946234;28;20566;-78
2022/07/15 00:18:01;;;;;;;1.98;0.88;;;20.10;91.60;;;;;;4944631;28;20450;-79
2022/07/15 00:20:36;;;;;;;1.60;0.70;;;20.30;91.40;;;;;;4945006;28;20405;-80
2022/07/15 00:23:07;;;;;;;1.83;0.80;;;20.70;91.20;;;;;;4939584;29;20051;-79
2022/07/15 00:25:35;;;;;;;1.42;0.60;;;21.20;90.40;;;;;;4942998;28;20019;-78
2022/07/15 00:28:08;;;;;;;1.15;0.50;;;21.50;90.10;;;;;;4939261;28;20058;-77
2022/07/15 00:30:40;;;;;;;0.60;0.50;;;21.30;89.90;;;;;;4945963;29;20023;-78
2022/07/15 00:33:09;;;;;;;0.75;0.25;;;21.60;85.40;;;;;;4939740;28;20462;-79
2022/07/15 00:35:38;;;;;;;0.30;0.20;;;21.70;86.10;;;;;;4951607;28;20078;-81
2022/07/15 00:38:09;;;;;;;1.73;0.20;;;22.10;85.80;;;;;;4945024;28;20039;-78
2022/07/15 00:40:47;;;;;;;0.47;0.20;;;22.40;86.20;;;;;;4945832;28;20050;-80
2022/07/15 00:43:16;;;;;;;0.57;0.30;;;22.30;85.20;;;;;;4944833;28;20093;-81
2022/07/15 00:45:44;;;;;;;0.93;0.20;;;22.20;84.50;;;;;;4947335;28;20167;-81
2022/07/15 00:48:12;;;;;;;0.60;0.20;;;22.30;85.00;;;;;;4941509;29;20036;-81
2022/07/15 00:50:40;;;;;;;0.20;0.10;;;22.70;84.30;;;;;;4948180;28;20406;-79
2022/07/15 00:53:28;;;;;;;2.22;0.10;;;22.60;83.70;;;;;;4942909;28;20055;-79
2022/07/15 00:56:00;;;;;;;0.98;0.17;;;22.90;83.10;;;;;;4933556;29;20051;-82
2022/07/15 00:58:29;;;;;;;0.70;0.30;;;23.00;83.00;;;;;;4945691;28;20031;-79
2022/07/15 01:00:58;;;;;;;1.33;0.20;;;23.40;80.80;;;;;;4936862;28;20023;-79
2022/07/15 01:03:28;;;;;;;1.35;0.10;;;23.50;81.90;;;;;;4937626;28;20027;-81
2022/07/15 01:05:57;;;;;;;0.20;0.10;;;23.50;80.80;;;;;;4944125;29;20489;-79
2022/07/15 01:08:24;;;;;;;0.20;0.20;;;23.80;81.90;;;;;;4940293;28;20372;-79
2022/07/15 01:10:53;;;;;;;1.00;0.20;;;23.70;81.20;;;;;;4947564;29;20112;-79
2022/07/15 01:13:21;;;;;;;1.05;0.40;;;24.10;79.60;;;;;;4951409;29;20039;-78
2022/07/15 01:15:49;;;;;;;0.32;0.10;;;24.20;77.20;;;;;;4951572;29;20042;-80
2022/07/15 01:18:17;;;;;;;0.00;0.00;;;24.10;79.80;;;;;;4950308;28;20525;-80
2022/07/15 01:20:48;;;;;;;0.40;0.17;;;24.40;79.30;;;;;;4953676;28;20438;-79
2022/07/15 01:23:17;;;;;;;0.47;0.17;;;24.40;79.30;;;;;;4935060;29;20419;-78
2022/07/15 01:25:45;;;;;;;0.57;0.10;;;25.00;80.40;;;;;;4953843;28;20096;-78
2022/07/15 01:28:12;;;;;;;0.10;0.10;;;25.20;77.60;;;;;;4948413;28;20110;-78
2022/07/15 01:30:40;;;;;;;1.13;0.30;;;25.20;77.20;;;;;;4951699;29;20047;-79
2022/07/15 01:33:08;;;;;;;0.52;0.10;;;25.30;76.90;;;;;;4950979;28;20051;-80
2022/07/15 01:35:35;;;;;;;0.10;0.10;;;25.10;76.60;;;;;;4953662;28;20398;-79
2022/07/15 01:38:03;;;;;;;0.95;0.10;;;24.90;74.90;;;;;;4949472;28;20482;-78
2022/07/15 01:40:30;;;;;;;1.80;0.20;;;25.00;74.30;;;;;;4953510;29;20032;-79
2022/07/15 01:42:58;;;;;;;0.10;0.00;;;24.80;76.00;;;;;;4944901;29;20592;-78
2022/07/15 01:45:25;;;;;;;1.52;0.20;;;25.20;75.10;;;;;;4942160;29;20102;-78
2022/07/15 01:47:53;;;;;;;0.40;0.22;;;25.30;76.50;;;;;;4948582;28;20460;-78
2022/07/15 01:50:21;;;;;;;0.45;0.20;;;25.70;76.70;;;;;;4947650;28;20038;-78
2022/07/15 01:52:48;;;;;;;1.00;0.82;;;25.50;74.20;;;;;;4938016;28;20127;-77
2022/07/15 01:55:16;;;;;;;2.92;0.30;;;25.50;73.40;;;;;;4950860;29;20074;-78
2022/07/15 01:57:43;;;;;;;0.73;0.20;;;25.20;72.90;;;;;;4949645;28;20134;-76
2022/07/15 02:00:12;;;;;;;1.02;0.10;;;24.80;72.30;;;;;;4951999;29;20035;-76
2022/07/15 02:02:40;;;;;;;1.25;0.30;;;23.90;73.90;;;;;;4945011;28;20043;-75
2022/07/15 02:05:08;;;;;;;2.45;0.63;;;23.70;74.80;;;;;;4950846;28;20042;-77
2022/07/15 02:07:36;;;;;;;0.65;0.20;;;23.10;75.80;;;;;;4955943;28;20446;-77
2022/07/15 02:10:04;;;;;;;1.88;0.30;;;23.50;75.90;;;;;;4952570;28;20039;-77
2022/07/15 02:12:31;;;;;;;0.50;0.20;;;24.30;76.60;;;;;;4956555;28;20040;-76
2022/07/15 02:14:59;;;;;;;0.38;0.20;;;24.90;74.30;;;;;;4948993;28;20043;-76
2022/07/15 02:17:26;;;;;;;0.38;0.32;;;25.00;72.90;;;;;;4942723;28;20112;-76
2022/07/15 02:19:54;;;;;;;0.80;0.25;;;25.00;71.30;;;;;;4942420;28;20039;-76
2022/07/15 02:22:21;;;;;;;0.80;0.25;;;24.70;71.90;;;;;;4947576;28;20057;-77
2022/07/15 02:24:48;;;;;;;1.35;0.55;;;24.80;74.90;;;;;;4954080;28;20062;-77
2022/07/15 02:27:16;;;;;;;1.10;0.20;;;24.90;74.10;;;;;;4953530;29;20098;-78
2022/07/15 02:29:43;;;;;;;0.65;0.20;;;24.70;73.30;;;;;;4953457;28;20430;-77
2022/07/15 02:32:10;;;;;;;1.75;0.20;;;24.50;74.40;;;;;;4950197;28;20027;-78
2022/07/15 02:34:38;;;;;;;1.50;0.30;;;24.20;73.60;;;;;;4946892;28;20065;-78
2022/07/15 02:37:05;;;;;;;0.55;0.30;;;23.40;73.10;;;;;;4950424;29;20031;-77
2022/07/15 02:39:33;;;;;;;0.75;0.40;;;23.30;75.00;;;;;;4950444;28;21496;-77
2022/07/15 02:42:00;;;;;;;1.92;0.30;;;23.60;74.30;;;;;;4943651;29;20474;-79
2022/07/15 02:44:27;;;;;;;1.48;0.70;;;23.30;74.60;;;;;;4945953;28;20038;-76
2022/07/15 02:46:55;;;;;;;0.25;0.15;;;22.60;75.50;;;;;;4936039;28;20023;-78
2022/07/15 02:49:23;;;;;;;1.85;0.28;;;22.60;74.20;;;;;;4949702;28;20126;-79
2022/07/15 02:51:50;;;;;;;0.60;0.30;;;22.90;78.20;;;;;;4938620;28;20031;-78
2022/07/15 02:54:18;;;;;;;1.27;0.20;;;22.80;76.70;;;;;;4950033;29;21775;-78
2022/07/15 02:56:46;;;;;;;0.60;0.20;;;22.80;75.00;;;;;;4950023;28;20493;-79
2022/07/15 02:59:13;;;;;;;0.47;0.28;;;22.30;74.70;;;;;;4947971;28;20074;-77
2022/07/15 03:01:41;;;;;;;0.95;0.20;;;22.50;77.10;;;;;;4945833;29;20506;-77
2022/07/15 03:04:08;;;;;;;0.30;0.10;;;22.80;74.10;;;;;;4945987;28;20130;-77
2022/07/15 03:06:36;;;;;;;0.75;0.32;;;22.90;75.40;;;;;;4945763;28;20034;-78
2022/07/15 03:09:03;;;;;;;0.82;0.30;;;23.00;75.70;;;;;;4943946;28;20674;-77
2022/07/15 03:11:31;;;;;;;1.42;0.38;;;23.00;75.30;;;;;;4944236;28;20059;-78
2022/07/15 03:13:58;;;;;;;0.10;0.10;;;22.80;73.80;;;;;;4946347;28;20043;-75
2022/07/15 03:16:26;;;;;;;0.20;0.10;;;22.70;76.50;;;;;;4940077;28;20023;-78
2022/07/15 03:18:53;;;;;;;2.30;0.30;;;22.70;75.50;;;;;;4937865;28;20031;-78
2022/07/15 03:21:21;;;;;;;4.38;0.30;;;22.60;75.70;;;;;;4937865;28;20023;-77
2022/07/15 03:23:49;;;;;;;0.75;0.20;;;22.30;75.40;;;;;;4918469;29;20042;-75
2022/07/15 03:26:16;;;;;;;3.78;0.20;;;22.30;75.40;;;;;;4947129;28;20028;-74
2022/07/15 03:28:44;;;;;;;0.22;0.10;;;22.10;74.50;;;;;;4925081;29;20066;-75
2022/07/15 03:31:11;;;;;;;0.30;0.10;;;21.90;75.90;;;;;;4934257;28;20039;-76
2022/07/15 03:33:39;;;;;;;0.35;0.20;;;21.80;77.00;;;;;;4930880;28;20091;-76
2022/07/15 03:36:07;;;;;;;0.35;0.20;;;21.50;76.80;;;;;;4945915;28;20043;-79
2022/07/15 03:38:34;;;;;;;1.65;0.20;;;21.10;76.50;;;;;;4941634;28;20062;-78
2022/07/15 03:41:02;;;;;;;0.30;0.20;;;20.60;77.20;;;;;;4946771;28;20340;-75
2022/07/15 03:43:30;;;;;;;0.60;0.20;;;20.20;77.90;;;;;;4943638;28;20049;-76
2022/07/15 03:45:57;;;;;;;0.17;0.08;;;19.70;78.90;;;;;;4942556;28;20058;-77
2022/07/15 03:48:25;;;;;;;0.63;0.20;;;19.30;77.20;;;;;;4931177;28;20648;-76
2022/07/15 03:50:52;;;;;;;0.63;0.10;;;18.90;79.50;;;;;;4950314;28;20390;-76
2022/07/15 03:53:19;;;;;;;0.40;0.20;;;18.60;79.80;;;;;;4940283;28;20031;-78
2022/07/15 03:55:47;;;;;;;0.47;0.10;;;18.30;79.90;;;;;;4944928;28;20046;-77
2022/07/15 03:58:14;;;;;;;1.33;0.20;;;18.10;79.70;;;;;;4947895;29;20040;-77
2022/07/15 04:00:42;;;;;;;0.60;0.28;;;17.90;77.80;;;;;;4939827;28;20034;-76
2022/07/15 04:03:09;;;;;;;1.35;0.30;;;17.70;80.40;;;;;;4942181;28;20051;-77
2022/07/15 04:05:38;;;;;;;0.30;0.20;;;17.50;77.60;;;;;;4949846;29;20508;-75
2022/07/15 04:08:06;;;;;;;0.28;0.15;;;17.20;79.80;;;;;;4945818;28;20066;-75
2022/07/15 04:10:33;;;;;;;1.25;0.20;;;17.10;77.70;;;;;;4926383;28;20070;-75
2022/07/15 04:13:00;;;;;;;1.30;0.20;;;17.00;78.80;;;;;;4940664;28;20039;-76
2022/07/15 04:15:28;;;;;;;2.08;0.20;;;16.90;80.00;;;;;;4944352;28;20122;-76
2022/07/15 04:17:58;;;;;;;0.95;0.30;;;16.80;81.00;;;;;;4942073;28;20505;-77
2022/07/15 04:20:27;;;;;;;0.40;0.22;;;16.80;82.90;;;;;;4940563;28;20043;-76
2022/07/15 04:22:55;;;;;;;0.17;0.15;;;16.70;81.70;;;;;;4937030;28;20142;-76
2022/07/15 04:25:22;;;;;;;0.20;0.20;;;16.70;80.80;;;;;;4939273;28;20121;-76
2022/07/15 04:27:50;;;;;;;0.55;0.30;;;16.60;81.30;;;;;;4942321;28;20027;-75
2022/07/15 04:30:17;;;;;;;1.00;0.22;;;16.50;81.40;;;;;;4943571;28;20201;-76
2022/07/15 04:32:45;;;;;;;0.30;0.20;;;16.50;81.60;;;;;;4945407;28;20142;-76
2022/07/15 04:35:12;;;;;;;0.57;0.17;;;16.40;81.60;;;;;;4949420;28;20129;-74
2022/07/15 04:37:39;;;;;;;0.77;0.30;;;16.40;83.50;;;;;;4943461;28;20015;-74
2022/07/15 04:40:09;;;;;;;0.45;0.20;;;16.40;83.10;;;;;;4930889;29;20035;-74
2022/07/15 04:42:36;;;;;;;1.30;0.25;;;16.30;82.70;;;;;;4946848;28;20431;-74
2022/07/15 04:45:04;;;;;;;0.52;0.20;;;16.30;82.90;;;;;;4945630;28;20134;-75
2022/07/15 04:47:32;;;;;;;2.60;0.20;;;16.30;80.80;;;;;;4944414;28;20038;-75
2022/07/15 04:52:47;;;;;;;1.83;0.28;;;16.20;81.40;;;;;;4942730;29;20038;-74
2022/07/15 04:55:15;;;;;;;1.08;0.20;;;16.10;80.60;;;;;;4940360;28;20027;-74
2022/07/15 04:57:43;;;;;;;2.97;0.30;;;16.10;80.10;;;;;;4937101;28;20031;-73
2022/07/15 05:00:11;;;;;;;0.38;0.20;;;16.00;81.30;;;;;;4945183;28;20031;-74
2022/07/15 05:02:38;;;;;;;1.52;0.20;;;16.10;81.80;;;;;;4942588;28;20042;-74
2022/07/15 05:05:07;;;;;;;0.95;0.20;;;16.10;81.40;;;;;;4939941;28;20359;-73
2022/07/15 05:07:37;;;;;;;1.02;0.30;;;16.10;80.70;;;;;;4945221;28;20039;-73
2022/07/15 05:10:07;;;;;;;0.85;0.38;;;16.00;81.30;;;;;;4943575;28;20391;-75
2022/07/15 05:12:35;;;;;;;0.30;0.10;;;15.90;82.50;;;;;;4945999;28;20406;-72
2022/07/15 05:15:03;;;;;;;1.00;0.40;;;15.90;82.20;;;;;;4942497;29;20137;-73
2022/07/15 05:17:30;;;;;;;2.47;0.43;;;15.80;83.30;;;;;;4941806;28;20494;-73
2022/07/15 05:19:58;;;;;;;0.50;0.20;;;15.70;81.40;;;;;;4943136;28;20037;-74
2022/07/15 05:22:25;;;;;;;0.47;0.20;;;15.70;82.10;;;;;;4945771;29;20031;-74
2022/07/15 05:24:53;;;;;;;0.52;0.20;;;15.70;81.90;;;;;;4933378;29;20114;-75
2022/07/15 05:27:21;;;;;;;0.47;0.22;;;15.70;82.90;;;;;;4940609;29;20035;-73
2022/07/15 05:29:48;;;;;;;1.05;0.20;;;15.60;82.10;;;;;;4943830;28;20308;-74
2022/07/15 05:32:15;;;;;;;0.25;0.10;;;15.60;81.80;;;;;;4940612;28;20123;-74
2022/07/15 05:34:43;;;;;;;0.45;0.20;;;15.60;81.50;;;;;;4946216;28;20051;-73
2022/07/15 05:37:10;;;;;;;1.02;0.32;;;15.60;83.00;;;;;;4942561;29;20038;-73
2022/07/15 05:39:53;;;;;;;0.30;0.30;;;15.50;82.70;;;;;;4945726;28;20094;-73
2022/07/15 05:42:21;;;;;;;0.63;0.40;;;15.50;83.40;;;;;;4937405;28;20553;-74
2022/07/15 05:44:49;;;;;;;0.30;0.20;;;15.60;84.30;;;;;;4939210;29;20449;-75
2022/07/15 05:47:17;;;;;;;0.40;0.20;;;15.60;84.50;;;;;;4945900;29;20034;-73
2022/07/15 05:49:44;;;;;;;0.52;0.28;;;15.60;85.50;;;;;;4946241;28;20055;-71
2022/07/15 05:52:11;;;;;;;1.70;0.10;;;15.50;84.40;;;;;;4938893;28;20038;-74
2022/07/15 05:54:42;;;;;;;0.25;0.20;;;15.60;82.70;;;;;;4942794;28;20054;-73
2022/07/15 05:57:10;;;;;;;0.47;0.25;;;15.60;81.00;;;;;;4944563;29;20085;-74
2022/07/15 05:59:37;;;;;;;0.40;0.20;;;15.60;83.00;;;;;;4951570;29;20031;-73
2022/07/15 06:02:05;;;;;;;1.75;0.93;;;15.60;84.30;;;;;;4943043;28;20042;-75
2022/07/15 06:04:33;;;;;;;0.63;0.30;;;15.60;82.30;;;;;;4943383;28;20026;-74
2022/07/15 06:07:01;;;;;;;2.22;0.38;;;15.60;82.30;;;;;;4941816;28;20051;-74
2022/07/15 06:09:28;;;;;;;0.95;0.25;;;15.70;82.10;;;;;;4940228;28;20114;-73
2022/07/15 06:11:56;;;;;;;1.02;0.30;;;15.80;81.10;;;;;;4947689;28;20042;-74
2022/07/15 06:14:23;;;;;;;0.20;0.20;;;15.80;82.10;;;;;;4949533;28;20044;-73
2022/07/15 06:16:51;;;;;;;1.67;0.40;;;15.90;83.90;;;;;;4944167;28;20474;-73
2022/07/15 06:19:18;;;;;;;0.25;0.20;;;15.90;82.20;;;;;;4945850;28;20134;-74
2022/07/15 06:21:46;;;;;;;0.65;0.30;;;15.90;82.60;;;;;;4944178;29;20027;-72
2022/07/15 06:24:13;;;;;;;0.30;0.17;;;16.00;83.70;;;;;;4943310;28;20046;-75
2022/07/15 06:26:41;;;;;;;1.88;0.30;;;16.10;83.10;;;;;;4930800;29;20138;-73
2022/07/15 06:29:08;;;;;;;0.65;0.55;;;16.10;86.00;;;;;;4950070;28;20166;-73
2022/07/15 06:31:35;;;;;;;1.95;0.20;;;16.10;83.50;;;;;;4943895;28;20462;-74
2022/07/15 06:34:03;;;;;;;0.95;0.20;;;16.10;85.50;;;;;;4942875;29;20068;-74
2022/07/15 06:36:31;;;;;;;0.30;0.20;;;16.00;82.40;;;;;;4942921;28;20028;-74
2022/07/15 06:38:58;;;;;;;0.40;0.30;;;15.80;83.30;;;;;;4917551;28;20061;-75
2022/07/15 06:41:26;;;;;;;0.80;0.30;;;15.70;84.10;;;;;;4956680;28;20371;-75
2022/07/15 06:43:54;;;;;;;0.40;0.20;;;15.50;84.70;;;;;;4948987;28;20445;-74
2022/07/15 06:46:21;;;;;;;0.38;0.20;;;15.40;85.20;;;;;;4948571;29;20052;-74
2022/07/15 06:48:48;;;;;;;0.30;0.20;;;15.10;86.80;;;;;;4942273;28;20039;-74
2022/07/15 06:51:16;;;;;;;0.22;0.17;;;14.90;87.70;;;;;;4945789;29;20435;-74
2022/07/15 06:53:43;;;;;;;0.40;0.40;;;14.70;88.30;;;;;;4940366;29;20044;-75
2022/07/15 06:56:12;;;;;;;0.80;0.32;;;14.60;89.40;;;;;;4944276;28;20027;-75
2022/07/15 06:58:39;;;;;;;0.68;0.30;;;14.40;89.80;;;;;;4947358;29;20605;-74
2022/07/15 07:01:07;;;;;;;3.38;0.50;;;14.20;90.70;;;;;;4951485;28;20557;-75
2022/07/15 07:03:34;;;;;;;0.60;0.50;;;14.10;90.70;;;;;;4950726;28;20062;-75
2022/07/15 07:06:02;;;;;;;0.55;0.43;;;14.00;91.60;;;;;;4942356;28;20024;-76
2022/07/15 07:08:29;;;;;;;2.25;0.73;;;13.80;92.40;;;;;;4943208;28;21930;-76
2022/07/15 07:10:57;;;;;;;2.13;0.50;;;13.70;92.10;;;;;;4941810;29;20028;-76
2022/07/15 07:13:24;;;;;;;1.02;0.60;;;13.50;93.10;;;;;;4943748;29;20027;-75
2022/07/15 07:15:52;;;;;;;1.02;0.40;;;13.40;93.20;;;;;;4941864;29;20075;-75
2022/07/15 07:18:19;;;;;;;0.98;0.47;;;13.30;93.40;;;;;;4946499;29;20041;-76
2022/07/15 07:20:46;;;;;;;2.45;0.50;;;13.10;93.70;;;;;;4946721;28;20122;-73
2022/07/15 07:23:14;;;;;;;2.85;0.55;;;13.00;94.30;;;;;;4939569;29;20114;-77
2022/07/15 07:25:41;;;;;;;1.48;0.60;;;12.90;94.30;;;;;;4944646;29;20036;-76
2022/07/15 07:28:09;;;;;;;2.90;0.57;;;12.80;94.80;;;;;;4940446;29;20040;-76
2022/07/15 07:30:36;;;;;;;2.67;0.82;;;12.70;95.00;;;;;;4943591;28;20082;-75
2022/07/15 07:33:04;;;;;;;1.20;1.10;;;12.60;94.80;;;;;;4920631;29;20065;-74
2022/07/15 07:35:32;;;;;;;1.13;0.68;;;12.50;95.00;;;;;;4943106;29;20031;-78
2022/07/15 07:38:00;;;;;;;2.75;1.23;;;12.40;95.30;;;;;;4940219;29;20030;-75
2022/07/15 07:40:27;;;;;;;3.35;1.70;;;12.30;95.30;;;;;;4924604;29;20046;-80
2022/07/15 07:42:56;;;;;;;5.47;1.20;;;12.20;95.80;;;;;;4942174;29;20031;-79
2022/07/15 07:45:24;;;;;;;1.73;1.05;;;12.10;96.40;;;;;;4946473;28;20126;-77
2022/07/15 07:47:52;;;;;;;3.30;1.95;;;12.00;97.00;;;;;;4940714;29;20653;-78
2022/07/15 07:50:19;;;;;;;3.80;2.13;;;11.80;97.00;;;;;;4943935;29;20042;-79
2022/07/15 07:52:47;;;;;;;7.20;2.65;;;11.70;97.30;;;;;;4940919;29;20532;-79
2022/07/15 07:55:17;;;;;;;4.55;2.70;;;11.60;97.60;;;;;;4945440;29;20481;-78
2022/07/15 07:57:53;;;;;;;6.15;2.80;;;11.50;97.60;;;;;;4943740;29;20038;-80
2022/07/15 08:00:21;;;;;;;4.22;2.85;;;11.40;97.80;;;;;;4940012;28;20933;-80
2022/07/15 08:02:49;;;;;;;5.32;3.05;;;11.30;98.10;;;;;;4938336;28;20086;-77
2022/07/15 08:05:17;;;;;;;3.90;2.92;;;11.30;98.40;;;;;;4942260;29;20046;-79
2022/07/15 08:07:45;;;;;;;8.48;3.78;;;11.20;98.60;;;;;;4938810;28;20031;-78
2022/07/15 08:10:13;;;;;;;11.23;3.58;;;11.20;98.80;;;;;;4942422;28;20027;-81
2022/07/15 08:12:41;;;;;;;6.13;3.20;;;11.10;99.60;;;;;;4940086;29;20033;-79
2022/07/15 08:15:11;;;;;;;8.23;4.38;;;11.00;99.10;;;;;;4941231;28;20053;-77
2022/07/15 08:17:41;;;;;;;8.65;4.80;;;11.00;99.20;;;;;;4941540;29;20030;-78
2022/07/15 08:20:10;;;;;;;5.25;3.30;;;10.90;99.90;;;;;;4939880;29;20050;-78
2022/07/15 08:22:38;;;;;;;6.70;4.03;;;10.80;99.80;;;;;;4940471;29;20077;-78
2022/07/15 08:25:06;;;;;;;11.07;6.97;;;10.70;99.90;;;;;;4944367;28;20036;-80
2022/07/15 08:27:33;;;;;;;13.68;9.95;;;10.60;99.90;;;;;;4940110;28;20035;-79
2022/07/15 08:30:01;;;;;;;14.43;10.73;;;10.50;99.90;;;;;;4951757;28;20036;-77
2022/07/15 08:32:28;;;;;;;16.50;10.32;;;10.40;99.90;;;;;;4944326;28;20047;-81
2022/07/15 08:34:55;;;;;;;15.98;11.10;;;10.40;99.90;;;;;;4947263;29;20051;-77
2022/07/15 08:37:26;;;;;;;16.33;10.93;;;10.30;99.90;;;;;;4939450;29;20478;-76
2022/07/15 08:39:53;;;;;;;14.00;9.38;;;10.20;99.90;;;;;;4943169;29;20043;-77
2022/07/15 08:42:21;;;;;;;11.90;8.93;;;10.10;99.90;;;;;;4948459;28;20114;-78
2022/07/15 08:44:49;;;;;;;9.60;7.32;;;10.10;99.90;;;;;;4932065;29;20031;-79
2022/07/15 08:47:16;;;;;;;22.50;12.98;;;10.00;99.90;;;;;;4940274;29;20058;-77
2022/07/15 08:49:48;;;;;;;24.70;13.80;;;9.90;99.90;;;;;;4946228;29;20042;-76
2022/07/15 08:52:17;;;;;;;41.55;21.33;;;9.90;99.90;;;;;;4949144;29;20139;-77
2022/07/15 08:54:49;;;;;;;38.33;18.48;;;9.90;99.90;;;;;;4952830;29;20079;-77
2022/07/15 08:57:17;;;;;;;21.17;11.43;;;9.80;99.90;;;;;;4949008;29;20517;-78
2022/07/15 08:59:47;;;;;;;15.70;9.45;;;9.80;99.90;;;;;;4951799;29;20586;-77
2022/07/15 09:02:18;;;;;;;12.07;6.43;;;9.70;99.90;;;;;;4949267;29;20031;-79
2022/07/15 09:05:24;;;;;;;10.93;5.95;;;9.70;99.90;;;;;;4949862;29;20065;-76
2022/07/15 09:07:59;;;;;;;11.45;6.05;;;9.60;99.90;;;;;;4934458;29;20047;-77
2022/07/15 09:10:47;;;;;;;7.57;5.67;;;9.60;99.90;;;;;;4951978;29;20027;-77
2022/07/15 09:13:26;;;;;;;7.22;3.90;;;9.60;99.90;;;;;;4948067;29;20452;-76
2022/07/15 09:15:55;;;;;;;8.77;4.03;;;9.60;99.90;;;;;;4951796;29;20062;-79
2022/07/15 09:18:26;;;;;;;7.22;4.97;;;9.50;99.90;;;;;;4952775;29;20107;-77
2022/07/15 09:20:54;;;;;;;9.15;5.13;;;9.40;99.90;;;;;;4941220;29;20362;-77
2022/07/15 09:23:34;;;;;;;6.95;4.55;;;9.40;99.90;;;;;;4950334;29;20033;-78
2022/07/15 09:26:24;;;;;;;7.00;4.95;;;9.30;99.90;;;;;;4948351;29;20031;-78
2022/07/15 09:28:51;;;;;;;9.55;5.15;;;9.30;99.90;;;;;;4949897;28;20035;-77
2022/07/15 09:34:21;;;;;;;8.93;5.50;;;9.20;99.90;;;;;;4951321;29;20532;-78
2022/07/15 09:36:57;;;;;;;10.70;6.53;;;9.20;99.90;;;;;;4944179;29;20039;-78
2022/07/15 09:39:26;;;;;;;8.68;6.60;;;9.20;99.90;;;;;;4943426;28;20042;-78
2022/07/15 09:41:54;;;;;;;12.55;7.05;;;9.30;99.90;;;;;;4944781;28;20123;-78
2022/07/15 09:44:23;;;;;;;13.00;8.48;;;9.30;99.90;;;;;;4944428;28;20052;-79
2022/07/15 09:46:58;;;;;;;13.18;8.52;;;9.20;99.90;;;;;;4942082;28;20339;-78
2022/07/15 09:49:29;;;;;;;14.10;9.23;;;9.10;99.90;;;;;;4948004;29;20110;-79
2022/07/15 09:51:59;;;;;;;14.00;9.50;;;9.10;99.90;;;;;;4948761;28;20031;-77
2022/07/15 09:54:32;;;;;;;15.35;9.75;;;9.00;99.90;;;;;;4950170;29;20027;-78
2022/07/15 09:57:04;;;;;;;14.50;10.95;;;9.00;99.90;;;;;;4949852;29;20493;-76
2022/07/15 09:59:32;;;;;;;15.40;9.48;;;8.90;99.90;;;;;;4949865;29;20488;-78
2022/07/15 10:02:00;;;;;;;13.07;8.07;;;8.90;99.90;;;;;;4943162;29;20024;-79
2022/07/15 10:04:29;;;;;;;16.80;10.15;;;8.80;99.90;;;;;;4949089;29;20027;-79
2022/07/15 10:07:05;;;;;;;16.05;10.38;;;8.70;99.90;;;;;;4950734;29;20035;-79
2022/07/15 10:09:35;;;;;;;17.65;10.38;;;8.70;99.90;;;;;;4948095;29;20132;-80
2022/07/15 10:12:21;;;;;;;17.15;11.55;;;8.60;99.90;;;;;;4937763;29;20119;-80
2022/07/15 10:14:55;;;;;;;19.25;11.30;;;8.50;99.90;;;;;;4951779;29;20051;-81
2022/07/15 10:17:44;;;;;;;17.73;11.32;;;8.40;99.90;;;;;;4935557;29;20032;-80
2022/07/15 10:20:50;;;;;;;13.88;9.32;;;8.40;99.90;;;;;;4943913;29;20031;-80
2022/07/15 10:23:57;;;;;;;12.32;9.30;;;8.30;99.90;;;;;;4936130;29;20419;-80
2022/07/15 10:27:14;;;;;;;13.32;9.48;;;8.30;99.90;;;;;;4949650;28;20171;-79
2022/07/15 10:29:43;;;;;;;16.17;9.65;;;8.20;99.90;;;;;;4928097;29;20050;-80
2022/07/15 10:32:10;;;;;;;14.68;9.32;;;8.10;99.90;;;;;;4940062;29;20034;-78
2022/07/15 10:34:40;;;;;;;15.05;10.05;;;8.00;99.90;;;;;;4950996;29;20443;-81
2022/07/15 10:37:12;;;;;;;14.88;10.82;;;8.00;99.90;;;;;;4942332;28;20028;-81
2022/07/15 10:40:06;;;;;;;13.23;9.02;;;7.90;99.90;;;;;;4942192;29;20065;-80
2022/07/15 10:43:03;;;;;;;11.30;7.35;;;7.90;99.90;;;;;;4942068;29;20046;-81
2022/07/15 10:45:30;;;;;;;;;;;7.90;99.90;;;;;;4954927;29;20386;-81
2022/07/15 10:48:33;;;;;;;10.93;6.78;;;7.90;99.90;;;;;;4946704;28;20448;-80
2022/07/15 10:51:00;;;;;;;13.52;6.65;;;7.80;99.90;;;;;;4951316;29;20035;-79
2022/07/15 10:53:29;;;;;;;16.58;7.13;;;7.80;99.90;;;;;;4936167;29;20122;-81
2022/07/15 10:56:10;;;;;;;13.35;7.22;;;7.80;99.90;;;;;;4950667;29;20498;-81
2022/07/15 10:58:38;;;;;;;18.58;6.28;;;7.70;99.90;;;;;;4935767;29;20038;-80
2022/07/15 11:01:26;;;;;;;14.45;8.07;;;7.60;99.90;;;;;;4950062;28;20031;-80
2022/07/15 11:04:15;;;;;;;15.98;6.72;;;7.60;99.90;;;;;;4952609;29;20031;-81
2022/07/15 11:07:10;;;;;;;11.80;6.97;;;7.50;99.90;;;;;;4951744;29;20027;-79
2022/07/15 11:09:55;;;;;;;8.32;5.97;;;7.50;99.90;;;;;;4950092;29;20031;-81
2022/07/15 11:12:32;;;;;;;13.20;5.57;;;7.40;99.90;;;;;;4940674;29;20028;-80
2022/07/15 11:15:04;;;;;;;11.95;5.70;;;7.40;99.90;;;;;;4946140;29;20088;-80
2022/07/15 11:17:34;;;;;;;16.90;5.70;;;7.30;99.90;;;;;;4940426;29;20028;-80
2022/07/15 11:20:23;;;;;;;9.68;4.40;;;7.30;99.90;;;;;;4949043;28;20039;-81
2022/07/15 11:22:53;;;;;;;14.48;7.13;;;7.30;99.90;;;;;;4941988;29;20055;-80
2022/07/15 11:25:28;;;;;;;21.13;7.50;;;7.20;99.90;;;;;;4951911;29;20030;-80
2022/07/15 11:28:01;;;;;;;16.38;6.82;;;7.20;99.90;;;;;;4937471;29;20050;-80
2022/07/15 11:30:38;;;;;;;16.15;6.80;;;7.20;99.90;;;;;;4952749;29;20027;-80
2022/07/15 11:33:11;;;;;;;19.60;8.02;;;7.10;99.90;;;;;;4949779;29;20103;-80
2022/07/15 11:35:50;;;;;;;17.77;6.90;;;7.10;99.90;;;;;;4952634;29;20134;-80
2022/07/15 11:38:22;;;;;;;14.05;6.50;;;7.00;99.90;;;;;;4938545;29;20381;-79
2022/07/15 11:46:32;;;;;;;10.23;5.10;;;6.80;99.90;;;;;;4946665;29;20111;-81
2022/07/15 11:49:00;;;;;;;8.05;4.45;;;6.80;99.90;;;;;;4946145;29;20508;-79
2022/07/15 11:51:30;;;;;;;8.77;3.55;;;6.80;99.90;;;;;;4948349;28;20059;-80
2022/07/15 11:53:59;;;;;;;9.15;4.53;;;6.80;99.90;;;;;;4947910;29;20028;-79
2022/07/15 11:56:27;;;;;;;11.90;7.28;;;6.80;99.90;;;;;;4935529;29;20114;-78
2022/07/15 11:58:56;;;;;;;11.90;6.45;;;6.80;99.90;;;;;;4936647;29;20071;-79
2022/07/15 12:01:30;;;;;;;19.55;7.90;;;6.80;99.90;;;;;;4950310;29;20024;-80
2022/07/15 12:03:59;;;;;;;23.50;9.65;;;6.70;99.90;;;;;;4952509;29;20489;-79
2022/07/15 12:06:30;;;;;;;17.95;10.63;;;6.70;99.90;;;;;;4949632;29;20098;-80
2022/07/15 12:09:03;;;;;;;18.52;8.80;;;6.70;99.90;;;;;;4940587;29;20074;-80
2022/07/15 12:11:34;;;;;;;15.10;10.05;;;6.60;99.90;;;;;;4950122;29;20024;-79
2022/07/15 12:14:04;;;;;;;21.33;9.95;;;6.60;99.90;;;;;;4950239;29;20072;-79
2022/07/15 12:16:47;;;;;;;23.50;11.13;;;6.50;99.90;;;;;;4943096;29;20324;-80
2022/07/15 12:19:17;;;;;;;21.13;11.80;;;6.50;99.90;;;;;;4941704;29;20113;-79
2022/07/15 12:21:47;;;;;;;24.95;12.95;;;6.40;99.90;;;;;;4947503;29;20059;-81
2022/07/15 12:24:22;;;;;;;23.80;11.57;;;6.40;99.90;;;;;;4938310;28;20042;-80
2022/07/15 12:26:55;;;;;;;25.87;12.33;;;6.40;99.90;;;;;;4947504;28;20051;-79
2022/07/15 12:29:25;;;;;;;19.95;11.05;;;6.30;99.90;;;;;;4947347;28;20717;-80
2022/07/15 12:32:01;;;;;;;19.27;10.57;;;6.30;99.90;;;;;;4942650;29;20031;-79
2022/07/15 12:35:00;;;;;;;17.85;10.18;;;6.30;99.90;;;;;;4939678;29;20088;-79
2022/07/15 12:37:31;;;;;;;12.95;7.40;;;6.30;99.90;;;;;;4937125;29;20121;-78
2022/07/15 12:40:04;;;;;;;15.55;7.50;;;6.30;99.90;;;;;;4948809;29;20042;-78
2022/07/15 12:42:42;;;;;;;12.43;6.55;;;6.20;99.90;;;;;;4941683;29;20023;-80
2022/07/15 12:45:23;;;;;;;15.13;9.43;;;6.20;99.90;;;;;;4950624;29;20045;-78
2022/07/15 12:48:15;;;;;;;20.10;10.13;;;6.20;99.90;;;;;;4937635;29;20066;-78
2022/07/15 12:50:51;;;;;;;16.02;10.32;;;6.10;99.90;;;;;;4952057;29;20070;-78
2022/07/15 12:53:21;;;;;;;22.60;10.93;;;6.20;99.90;;;;;;4951917;29;20039;-78
2022/07/15 12:55:50;;;;;;;16.92;8.90;;;6.10;99.90;;;;;;4950646;28;20043;-78
2022/07/15 12:58:26;;;;;;;14.25;8.75;;;6.10;99.90;;;;;;4937058;29;20444;-78
2022/07/15 13:01:03;;;;;;;17.52;9.98;;;6.10;99.90;;;;;;4937219;29;20134;-78
2022/07/15 13:03:30;;;;;;;13.90;8.45;;;6.00;99.90;;;;;;4951631;28;20485;-79
2022/07/15 13:06:01;;;;;;;14.93;9.02;;;5.90;99.90;;;;;;4928856;29;20031;-80
2022/07/15 13:08:31;;;;;;;18.55;10.20;;;5.80;99.90;;;;;;4939927;28;20039;-79
2022/07/15 13:11:01;;;;;;;14.20;8.32;;;5.80;99.90;;;;;;4949403;29;20031;-79
2022/07/15 13:13:31;;;;;;;16.98;9.30;;;5.90;99.90;;;;;;4950985;29;20058;-79